sensor_id;sensor_type;location;lat;lon;timestamp;P1;durP1;ratioP1;P2;durP2;ratioP2
21581;SDS011;10952;50.836;4.348;2023-05-13T00:01:14;14.10;;;9.63;;
21581;SDS011;10952;50.836;4.348;2023-05-13T00:03:40;12.30;;;9.03;;
21581;SDS011;10952;50.836;4.348;2023-05-13T00:06:06;15.83;;;9.83;;
21581;SDS011;10952;50.836;4.348;2023-05-13T00:08:32;18.47;;;10.87;;
21581;SDS011;10952;50.836;4.348;2023-05-13T00:10:58;14.37;;;10.03;;
21581;SDS011;10952;50.836;4.348;2023-05-13T00:13:23;13.83;;;10.13;;
21581;SDS011;10952;50.836;4.348;2023-05-13T00:15:49;14.93;;;10.83;;
21581;SDS011;10952;50.836;4.348;2023-05-13T00:18:15;17.73;;;10.37;;
21581;SDS011;10952;50.836;4.348;2023-05-13T00:20:41;14.80;;;10.30;;
21581;SDS011;10952;50.836;4.348;2023-05-13T00:23:06;17.90;;;11.53;;
21581;SDS011;10952;50.836;4.348;2023-05-13T00:25:34;14.43;;;10.60;;
21581;SDS011;10952;50.836;4.348;2023-05-13T00:27:59;20.40;;;11.37;;
21581;SDS011;10952;50.836;4.348;2023-05-13T00:30:25;15.83;;;10.60;;
21581;SDS011;10952;50.836;4.348;2023-05-13T00:32:51;15.07;;;10.13;;
21581;SDS011;10952;50.836;4.348;2023-05-13T00:35:16;14.73;;;11.07;;
21581;SDS011;10952;50.836;4.348;2023-05-13T00:37:42;21.33;;;12.07;;
21581;SDS011;10952;50.836;4.348;2023-05-13T00:40:13;16.33;;;11.50;;
21581;SDS011;10952;50.836;4.348;2023-05-13T00:42:45;16.57;;;10.83;;
21581;SDS011;10952;50.836;4.348;2023-05-13T00:45:11;17.70;;;11.47;;
21581;SDS011;10952;50.836;4.348;2023-05-13T00:47:40;15.40;;;11.57;;
21581;SDS011;10952;50.836;4.348;2023-05-13T00:50:07;18.43;;;12.03;;
21581;SDS011;10952;50.836;4.348;2023-05-13T00:52:37;18.33;;;11.10;;
21581;SDS011;10952;50.836;4.348;2023-05-13T00:55:05;18.67;;;12.70;;
21581;SDS011;10952;50.836;4.348;2023-05-13T00:57:32;17.77;;;12.50;;
21581;SDS011;10952;50.836;4.348;2023-05-13T00:59:59;19.57;;;13.43;;
21581;SDS011;10952;50.836;4.348;2023-05-13T01:02:36;22.70;;;13.50;;
21581;SDS011;10952;50.836;4.348;2023-05-13T01:05:30;19.43;;;13.47;;
21581;SDS011;10952;50.836;4.348;2023-05-13T01:11:24;16.47;;;12.70;;
21581;SDS011;10952;50.836;4.348;2023-05-13T01:14:02;19.07;;;12.87;;
21581;SDS011;10952;50.836;4.348;2023-05-13T01:19:21;15.90;;;12.10;;
21581;SDS011;10952;50.836;4.348;2023-05-13T01:22:09;21.67;;;13.03;;
21581;SDS011;10952;50.836;4.348;2023-05-13T01:24:35;20.60;;;14.07;;
21581;SDS011;10952;50.836;4.348;2023-05-13T01:27:01;17.87;;;12.67;;
21581;SDS011;10952;50.836;4.348;2023-05-13T01:29:27;19.37;;;12.87;;
21581;SDS011;10952;50.836;4.348;2023-05-13T01:31:53;21.10;;;13.83;;
21581;SDS011;10952;50.836;4.348;2023-05-13T01:34:20;16.60;;;12.97;;
21581;SDS011;10952;50.836;4.348;2023-05-13T01:36:47;18.90;;;13.03;;
21581;SDS011;10952;50.836;4.348;2023-05-13T01:39:13;17.27;;;12.60;;
21581;SDS011;10952;50.836;4.348;2023-05-13T01:41:40;23.37;;;13.43;;
21581;SDS011;10952;50.836;4.348;2023-05-13T01:44:06;19.03;;;13.60;;
21581;SDS011;10952;50.836;4.348;2023-05-13T01:46:32;23.10;;;14.23;;
21581;SDS011;10952;50.836;4.348;2023-05-13T01:48:58;17.57;;;13.50;;
21581;SDS011;10952;50.836;4.348;2023-05-13T01:51:24;18.63;;;13.90;;
21581;SDS011;10952;50.836;4.348;2023-05-13T01:53:49;16.97;;;13.83;;
21581;SDS011;10952;50.836;4.348;2023-05-13T01:56:15;17.83;;;13.37;;
21581;SDS011;10952;50.836;4.348;2023-05-13T01:58:41;18.10;;;12.83;;
21581;SDS011;10952;50.836;4.348;2023-05-13T02:01:07;20.67;;;13.97;;
21581;SDS011;10952;50.836;4.348;2023-05-13T02:03:33;17.47;;;13.90;;
21581;SDS011;10952;50.836;4.348;2023-05-13T02:06:00;18.73;;;14.03;;
21581;SDS011;10952;50.836;4.348;2023-05-13T02:08:25;21.43;;;14.20;;
21581;SDS011;10952;50.836;4.348;2023-05-13T02:10:55;18.40;;;14.73;;
21581;SDS011;10952;50.836;4.348;2023-05-13T02:13:22;21.90;;;14.50;;
21581;SDS011;10952;50.836;4.348;2023-05-13T02:15:47;18.33;;;14.00;;
21581;SDS011;10952;50.836;4.348;2023-05-13T02:18:13;19.60;;;13.97;;
21581;SDS011;10952;50.836;4.348;2023-05-13T02:20:39;17.50;;;12.93;;
21581;SDS011;10952;50.836;4.348;2023-05-13T02:23:05;21.07;;;12.97;;
21581;SDS011;10952;50.836;4.348;2023-05-13T02:25:31;18.77;;;13.37;;
21581;SDS011;10952;50.836;4.348;2023-05-13T02:27:57;20.10;;;13.70;;
21581;SDS011;10952;50.836;4.348;2023-05-13T02:30:24;16.67;;;13.20;;
21581;SDS011;10952;50.836;4.348;2023-05-13T02:32:53;16.63;;;13.13;;
21581;SDS011;10952;50.836;4.348;2023-05-13T02:35:19;19.73;;;13.80;;
21581;SDS011;10952;50.836;4.348;2023-05-13T02:37:46;16.47;;;13.40;;
21581;SDS011;10952;50.836;4.348;2023-05-13T02:40:12;18.60;;;15.00;;
21581;SDS011;10952;50.836;4.348;2023-05-13T02:42:39;18.43;;;13.83;;
21581;SDS011;10952;50.836;4.348;2023-05-13T02:45:07;20.47;;;14.30;;
21581;SDS011;10952;50.836;4.348;2023-05-13T02:47:34;18.67;;;14.30;;
21581;SDS011;10952;50.836;4.348;2023-05-13T02:49:59;17.80;;;13.97;;
21581;SDS011;10952;50.836;4.348;2023-05-13T02:52:25;18.57;;;14.07;;
21581;SDS011;10952;50.836;4.348;2023-05-13T02:54:51;18.27;;;13.90;;
21581;SDS011;10952;50.836;4.348;2023-05-13T02:57:16;20.17;;;14.53;;
21581;SDS011;10952;50.836;4.348;2023-05-13T02:59:42;30.27;;;14.77;;
21581;SDS011;10952;50.836;4.348;2023-05-13T03:02:08;18.47;;;13.70;;
21581;SDS011;10952;50.836;4.348;2023-05-13T03:04:33;18.73;;;12.97;;
21581;SDS011;10952;50.836;4.348;2023-05-13T03:06:59;18.50;;;12.97;;
21581;SDS011;10952;50.836;4.348;2023-05-13T03:09:25;17.40;;;12.80;;
21581;SDS011;10952;50.836;4.348;2023-05-13T03:11:51;16.47;;;13.23;;
21581;SDS011;10952;50.836;4.348;2023-05-13T03:14:16;14.83;;;12.80;;
21581;SDS011;10952;50.836;4.348;2023-05-13T03:16:42;19.10;;;13.50;;
21581;SDS011;10952;50.836;4.348;2023-05-13T03:19:09;19.67;;;13.67;;
21581;SDS011;10952;50.836;4.348;2023-05-13T03:21:35;18.33;;;13.80;;
21581;SDS011;10952;50.836;4.348;2023-05-13T03:24:00;19.13;;;13.37;;
21581;SDS011;10952;50.836;4.348;2023-05-13T03:26:26;18.43;;;13.67;;
21581;SDS011;10952;50.836;4.348;2023-05-13T03:28:52;21.07;;;14.27;;
21581;SDS011;10952;50.836;4.348;2023-05-13T03:31:17;18.03;;;13.47;;
21581;SDS011;10952;50.836;4.348;2023-05-13T03:33:43;22.07;;;13.47;;
21581;SDS011;10952;50.836;4.348;2023-05-13T03:36:09;23.23;;;15.33;;
21581;SDS011;10952;50.836;4.348;2023-05-13T03:38:35;24.97;;;16.97;;
21581;SDS011;10952;50.836;4.348;2023-05-13T03:41:00;22.47;;;14.87;;
21581;SDS011;10952;50.836;4.348;2023-05-13T03:43:26;18.20;;;13.67;;
21581;SDS011;10952;50.836;4.348;2023-05-13T03:45:52;16.60;;;13.93;;
21581;SDS011;10952;50.836;4.348;2023-05-13T03:48:18;22.73;;;14.13;;
21581;SDS011;10952;50.836;4.348;2023-05-13T03:50:44;19.97;;;13.60;;
21581;SDS011;10952;50.836;4.348;2023-05-13T03:53:09;16.10;;;12.67;;
21581;SDS011;10952;50.836;4.348;2023-05-13T03:55:36;21.80;;;14.13;;
21581;SDS011;10952;50.836;4.348;2023-05-13T03:58:09;19.97;;;12.93;;
21581;SDS011;10952;50.836;4.348;2023-05-13T04:00:38;16.67;;;13.47;;
21581;SDS011;10952;50.836;4.348;2023-05-13T04:03:04;17.73;;;14.03;;
21581;SDS011;10952;50.836;4.348;2023-05-13T04:05:31;22.40;;;14.67;;
21581;SDS011;10952;50.836;4.348;2023-05-13T04:07:56;23.27;;;13.77;;
21581;SDS011;10952;50.836;4.348;2023-05-13T04:10:22;18.83;;;13.83;;
21581;SDS011;10952;50.836;4.348;2023-05-13T04:12:48;19.10;;;13.27;;
21581;SDS011;10952;50.836;4.348;2023-05-13T04:15:13;18.20;;;13.50;;
21581;SDS011;10952;50.836;4.348;2023-05-13T04:17:39;18.50;;;13.43;;
21581;SDS011;10952;50.836;4.348;2023-05-13T04:20:05;16.67;;;13.30;;
21581;SDS011;10952;50.836;4.348;2023-05-13T04:22:33;17.53;;;12.87;;
21581;SDS011;10952;50.836;4.348;2023-05-13T04:24:59;18.73;;;13.83;;
21581;SDS011;10952;50.836;4.348;2023-05-13T04:27:25;20.40;;;13.00;;
21581;SDS011;10952;50.836;4.348;2023-05-13T04:29:51;20.10;;;12.70;;
21581;SDS011;10952;50.836;4.348;2023-05-13T04:32:16;20.07;;;12.70;;
21581;SDS011;10952;50.836;4.348;2023-05-13T04:34:49;21.73;;;12.03;;
21581;SDS011;10952;50.836;4.348;2023-05-13T04:37:15;18.57;;;12.63;;
21581;SDS011;10952;50.836;4.348;2023-05-13T04:39:45;17.07;;;11.77;;
21581;SDS011;10952;50.836;4.348;2023-05-13T04:42:14;15.97;;;11.70;;
21581;SDS011;10952;50.836;4.348;2023-05-13T04:44:43;13.10;;;11.23;;
21581;SDS011;10952;50.836;4.348;2023-05-13T04:47:09;16.53;;;11.83;;
21581;SDS011;10952;50.836;4.348;2023-05-13T04:49:35;14.13;;;10.70;;
21581;SDS011;10952;50.836;4.348;2023-05-13T04:52:01;13.33;;;11.40;;
21581;SDS011;10952;50.836;4.348;2023-05-13T04:54:28;16.27;;;10.00;;
21581;SDS011;10952;50.836;4.348;2023-05-13T04:56:53;16.73;;;10.70;;
21581;SDS011;10952;50.836;4.348;2023-05-13T04:59:19;18.50;;;10.90;;
21581;SDS011;10952;50.836;4.348;2023-05-13T05:01:45;15.40;;;11.20;;
21581;SDS011;10952;50.836;4.348;2023-05-13T05:04:11;14.53;;;11.03;;
21581;SDS011;10952;50.836;4.348;2023-05-13T05:06:37;15.80;;;11.37;;
21581;SDS011;10952;50.836;4.348;2023-05-13T05:09:03;18.37;;;12.57;;
21581;SDS011;10952;50.836;4.348;2023-05-13T05:11:29;18.17;;;10.23;;
21581;SDS011;10952;50.836;4.348;2023-05-13T05:13:54;13.03;;;9.90;;
21581;SDS011;10952;50.836;4.348;2023-05-13T05:16:20;15.77;;;11.10;;
21581;SDS011;10952;50.836;4.348;2023-05-13T05:18:46;13.67;;;10.27;;
21581;SDS011;10952;50.836;4.348;2023-05-13T05:21:12;16.13;;;10.40;;
21581;SDS011;10952;50.836;4.348;2023-05-13T05:23:38;16.20;;;9.63;;
21581;SDS011;10952;50.836;4.348;2023-05-13T05:26:03;17.63;;;9.40;;
21581;SDS011;10952;50.836;4.348;2023-05-13T05:28:29;20.23;;;11.10;;
21581;SDS011;10952;50.836;4.348;2023-05-13T05:30:55;17.13;;;9.97;;
21581;SDS011;10952;50.836;4.348;2023-05-13T05:33:21;14.73;;;9.33;;
21581;SDS011;10952;50.836;4.348;2023-05-13T05:35:47;12.57;;;9.10;;
21581;SDS011;10952;50.836;4.348;2023-05-13T05:38:13;16.90;;;9.60;;
21581;SDS011;10952;50.836;4.348;2023-05-13T05:40:40;12.37;;;8.83;;
21581;SDS011;10952;50.836;4.348;2023-05-13T05:43:07;18.20;;;9.53;;
21581;SDS011;10952;50.836;4.348;2023-05-13T05:45:35;11.53;;;8.63;;
21581;SDS011;10952;50.836;4.348;2023-05-13T05:48:01;14.63;;;9.03;;
21581;SDS011;10952;50.836;4.348;2023-05-13T05:50:27;11.17;;;9.10;;
21581;SDS011;10952;50.836;4.348;2023-05-13T05:52:53;15.87;;;9.70;;
21581;SDS011;10952;50.836;4.348;2023-05-13T05:55:20;11.20;;;9.80;;
21581;SDS011;10952;50.836;4.348;2023-05-13T05:57:45;17.83;;;9.20;;
21581;SDS011;10952;50.836;4.348;2023-05-13T06:00:11;19.07;;;9.27;;
21581;SDS011;10952;50.836;4.348;2023-05-13T06:02:38;14.90;;;8.37;;
21581;SDS011;10952;50.836;4.348;2023-05-13T06:05:04;16.10;;;8.37;;
21581;SDS011;10952;50.836;4.348;2023-05-13T06:07:30;15.60;;;9.50;;
21581;SDS011;10952;50.836;4.348;2023-05-13T06:09:56;14.77;;;8.50;;
21581;SDS011;10952;50.836;4.348;2023-05-13T06:12:21;15.67;;;9.07;;
21581;SDS011;10952;50.836;4.348;2023-05-13T06:14:47;21.77;;;15.87;;
21581;SDS011;10952;50.836;4.348;2023-05-13T06:17:13;22.43;;;10.47;;
21581;SDS011;10952;50.836;4.348;2023-05-13T06:19:39;13.07;;;8.73;;
21581;SDS011;10952;50.836;4.348;2023-05-13T06:22:09;15.13;;;8.47;;
21581;SDS011;10952;50.836;4.348;2023-05-13T06:24:35;20.83;;;9.37;;
21581;SDS011;10952;50.836;4.348;2023-05-13T06:27:01;11.13;;;8.67;;
21581;SDS011;10952;50.836;4.348;2023-05-13T06:29:27;13.77;;;8.63;;
21581;SDS011;10952;50.836;4.348;2023-05-13T06:31:53;13.77;;;9.23;;
21581;SDS011;10952;50.836;4.348;2023-05-13T06:34:20;12.07;;;8.20;;
21581;SDS011;10952;50.836;4.348;2023-05-13T06:36:45;12.13;;;8.63;;
21581;SDS011;10952;50.836;4.348;2023-05-13T06:39:11;12.80;;;8.87;;
21581;SDS011;10952;50.836;4.348;2023-05-13T06:41:37;15.17;;;8.93;;
21581;SDS011;10952;50.836;4.348;2023-05-13T06:44:04;15.17;;;8.80;;
21581;SDS011;10952;50.836;4.348;2023-05-13T06:46:30;13.50;;;8.57;;
21581;SDS011;10952;50.836;4.348;2023-05-13T06:48:57;12.77;;;8.60;;
21581;SDS011;10952;50.836;4.348;2023-05-13T06:51:23;10.63;;;8.30;;
21581;SDS011;10952;50.836;4.348;2023-05-13T06:53:53;10.87;;;7.53;;
21581;SDS011;10952;50.836;4.348;2023-05-13T06:56:19;13.53;;;8.87;;
21581;SDS011;10952;50.836;4.348;2023-05-13T06:58:50;13.93;;;8.47;;
21581;SDS011;10952;50.836;4.348;2023-05-13T07:01:17;15.03;;;8.80;;
21581;SDS011;10952;50.836;4.348;2023-05-13T07:03:43;13.03;;;8.53;;
21581;SDS011;10952;50.836;4.348;2023-05-13T07:06:10;13.47;;;8.90;;
21581;SDS011;10952;50.836;4.348;2023-05-13T07:08:36;11.13;;;8.33;;
21581;SDS011;10952;50.836;4.348;2023-05-13T07:11:02;16.60;;;8.87;;
21581;SDS011;10952;50.836;4.348;2023-05-13T07:13:28;13.93;;;9.00;;
21581;SDS011;10952;50.836;4.348;2023-05-13T07:15:57;13.13;;;8.57;;
21581;SDS011;10952;50.836;4.348;2023-05-13T07:18:23;16.87;;;8.50;;
21581;SDS011;10952;50.836;4.348;2023-05-13T07:20:48;13.13;;;7.97;;
21581;SDS011;10952;50.836;4.348;2023-05-13T07:23:14;16.57;;;8.97;;
21581;SDS011;10952;50.836;4.348;2023-05-13T07:25:40;11.60;;;7.87;;
21581;SDS011;10952;50.836;4.348;2023-05-13T07:28:05;13.00;;;8.00;;
21581;SDS011;10952;50.836;4.348;2023-05-13T07:30:31;11.70;;;8.43;;
21581;SDS011;10952;50.836;4.348;2023-05-13T07:32:57;13.07;;;8.27;;
21581;SDS011;10952;50.836;4.348;2023-05-13T07:35:23;16.37;;;8.80;;
21581;SDS011;10952;50.836;4.348;2023-05-13T07:37:48;11.43;;;8.13;;
21581;SDS011;10952;50.836;4.348;2023-05-13T07:40:14;12.70;;;8.30;;
21581;SDS011;10952;50.836;4.348;2023-05-13T07:42:40;10.77;;;8.00;;
21581;SDS011;10952;50.836;4.348;2023-05-13T07:45:06;13.00;;;7.83;;
21581;SDS011;10952;50.836;4.348;2023-05-13T07:47:32;20.30;;;8.33;;
21581;SDS011;10952;50.836;4.348;2023-05-13T07:49:58;17.70;;;7.83;;
21581;SDS011;10952;50.836;4.348;2023-05-13T07:52:25;15.83;;;8.47;;
21581;SDS011;10952;50.836;4.348;2023-05-13T07:54:51;12.40;;;8.20;;
21581;SDS011;10952;50.836;4.348;2023-05-13T07:57:16;17.30;;;8.57;;
21581;SDS011;10952;50.836;4.348;2023-05-13T07:59:42;11.10;;;8.37;;
21581;SDS011;10952;50.836;4.348;2023-05-13T08:02:09;11.97;;;8.53;;
21581;SDS011;10952;50.836;4.348;2023-05-13T08:04:36;14.17;;;8.17;;
21581;SDS011;10952;50.836;4.348;2023-05-13T08:07:01;12.87;;;7.83;;
21581;SDS011;10952;50.836;4.348;2023-05-13T08:09:27;16.73;;;7.87;;
21581;SDS011;10952;50.836;4.348;2023-05-13T08:11:53;14.53;;;8.17;;
21581;SDS011;10952;50.836;4.348;2023-05-13T08:14:19;15.27;;;8.50;;
21581;SDS011;10952;50.836;4.348;2023-05-13T08:16:45;12.17;;;8.07;;
21581;SDS011;10952;50.836;4.348;2023-05-13T08:19:12;14.90;;;8.13;;
21581;SDS011;10952;50.836;4.348;2023-05-13T08:21:39;16.43;;;8.60;;
21581;SDS011;10952;50.836;4.348;2023-05-13T08:24:05;10.13;;;8.13;;
21581;SDS011;10952;50.836;4.348;2023-05-13T08:26:31;18.00;;;8.57;;
21581;SDS011;10952;50.836;4.348;2023-05-13T08:28:58;13.30;;;7.60;;
21581;SDS011;10952;50.836;4.348;2023-05-13T08:31:23;17.70;;;8.37;;
21581;SDS011;10952;50.836;4.348;2023-05-13T08:33:50;20.53;;;7.80;;
21581;SDS011;10952;50.836;4.348;2023-05-13T08:36:17;15.80;;;8.00;;
21581;SDS011;10952;50.836;4.348;2023-05-13T08:38:43;13.60;;;7.80;;
21581;SDS011;10952;50.836;4.348;2023-05-13T08:41:12;11.10;;;7.90;;
21581;SDS011;10952;50.836;4.348;2023-05-13T08:43:39;16.02;;;8.65;;
21581;SDS011;10952;50.836;4.348;2023-05-13T08:46:10;11.70;;;7.63;;
21581;SDS011;10952;50.836;4.348;2023-05-13T08:48:39;12.40;;;7.70;;
21581;SDS011;10952;50.836;4.348;2023-05-13T08:51:09;15.87;;;8.07;;
21581;SDS011;10952;50.836;4.348;2023-05-13T08:53:37;11.40;;;7.67;;
21581;SDS011;10952;50.836;4.348;2023-05-13T08:56:04;15.80;;;7.90;;
21581;SDS011;10952;50.836;4.348;2023-05-13T08:58:31;11.93;;;7.87;;
21581;SDS011;10952;50.836;4.348;2023-05-13T09:00:57;12.17;;;8.20;;
21581;SDS011;10952;50.836;4.348;2023-05-13T09:03:23;14.43;;;8.30;;
21581;SDS011;10952;50.836;4.348;2023-05-13T09:05:51;12.53;;;8.60;;
21581;SDS011;10952;50.836;4.348;2023-05-13T09:08:17;15.37;;;9.13;;
21581;SDS011;10952;50.836;4.348;2023-05-13T09:10:43;18.97;;;9.97;;
21581;SDS011;10952;50.836;4.348;2023-05-13T09:13:10;22.40;;;9.20;;
21581;SDS011;10952;50.836;4.348;2023-05-13T09:15:37;16.60;;;9.07;;
21581;SDS011;10952;50.836;4.348;2023-05-13T09:18:06;14.13;;;9.57;;
21581;SDS011;10952;50.836;4.348;2023-05-13T09:20:33;18.83;;;10.10;;
21581;SDS011;10952;50.836;4.348;2023-05-13T09:23:04;15.73;;;10.30;;
21581;SDS011;10952;50.836;4.348;2023-05-13T09:25:31;14.37;;;9.53;;
21581;SDS011;10952;50.836;4.348;2023-05-13T09:27:58;17.43;;;10.70;;
21581;SDS011;10952;50.836;4.348;2023-05-13T09:30:29;14.70;;;10.60;;
21581;SDS011;10952;50.836;4.348;2023-05-13T09:33:05;13.47;;;9.37;;
21581;SDS011;10952;50.836;4.348;2023-05-13T09:35:38;16.40;;;9.07;;
21581;SDS011;10952;50.836;4.348;2023-05-13T09:38:18;12.93;;;9.70;;
21581;SDS011;10952;50.836;4.348;2023-05-13T09:40:54;16.93;;;9.77;;
21581;SDS011;10952;50.836;4.348;2023-05-13T09:43:25;12.30;;;10.03;;
21581;SDS011;10952;50.836;4.348;2023-05-13T09:46:02;15.47;;;9.93;;
21581;SDS011;10952;50.836;4.348;2023-05-13T09:48:30;15.57;;;10.13;;
21581;SDS011;10952;50.836;4.348;2023-05-13T09:50:57;18.83;;;11.13;;
21581;SDS011;10952;50.836;4.348;2023-05-13T09:53:23;17.97;;;11.10;;
21581;SDS011;10952;50.836;4.348;2023-05-13T09:55:50;17.02;;;10.23;;
21581;SDS011;10952;50.836;4.348;2023-05-13T09:58:17;16.98;;;10.35;;
21581;SDS011;10952;50.836;4.348;2023-05-13T10:00:48;12.32;;;9.43;;
21581;SDS011;10952;50.836;4.348;2023-05-13T10:03:14;13.80;;;10.05;;
21581;SDS011;10952;50.836;4.348;2023-05-13T10:05:40;14.75;;;9.57;;
21581;SDS011;10952;50.836;4.348;2023-05-13T10:08:10;13.65;;;9.68;;
21581;SDS011;10952;50.836;4.348;2023-05-13T10:10:39;15.40;;;9.88;;
21581;SDS011;10952;50.836;4.348;2023-05-13T10:13:09;13.35;;;8.77;;
21581;SDS011;10952;50.836;4.348;2023-05-13T10:15:47;10.70;;;8.85;;
21581;SDS011;10952;50.836;4.348;2023-05-13T10:18:17;12.13;;;9.35;;
21581;SDS011;10952;50.836;4.348;2023-05-13T10:20:44;13.43;;;8.77;;
21581;SDS011;10952;50.836;4.348;2023-05-13T10:23:11;11.43;;;8.57;;
21581;SDS011;10952;50.836;4.348;2023-05-13T10:25:37;12.55;;;8.95;;
21581;SDS011;10952;50.836;4.348;2023-05-13T10:28:03;10.90;;;8.02;;
21581;SDS011;10952;50.836;4.348;2023-05-13T10:30:29;12.52;;;9.43;;
21581;SDS011;10952;50.836;4.348;2023-05-13T10:32:57;13.65;;;8.77;;
21581;SDS011;10952;50.836;4.348;2023-05-13T10:35:24;13.48;;;9.25;;
21581;SDS011;10952;50.836;4.348;2023-05-13T10:40:55;16.17;;;8.98;;
21581;SDS011;10952;50.836;4.348;2023-05-13T10:43:26;14.40;;;9.95;;
21581;SDS011;10952;50.836;4.348;2023-05-13T10:45:56;13.68;;;10.32;;
21581;SDS011;10952;50.836;4.348;2023-05-13T10:48:24;16.58;;;10.43;;
21581;SDS011;10952;50.836;4.348;2023-05-13T10:50:59;19.23;;;11.45;;
21581;SDS011;10952;50.836;4.348;2023-05-13T10:53:29;11.30;;;9.65;;
21581;SDS011;10952;50.836;4.348;2023-05-13T10:55:57;15.70;;;9.43;;
21581;SDS011;10952;50.836;4.348;2023-05-13T10:58:27;16.52;;;9.65;;
21581;SDS011;10952;50.836;4.348;2023-05-13T11:00:58;14.57;;;9.63;;
21581;SDS011;10952;50.836;4.348;2023-05-13T11:03:56;10.80;;;9.20;;
21581;SDS011;10952;50.836;4.348;2023-05-13T11:06:33;11.98;;;10.25;;
21581;SDS011;10952;50.836;4.348;2023-05-13T11:09:03;13.68;;;10.25;;
21581;SDS011;10952;50.836;4.348;2023-05-13T11:11:30;14.20;;;10.32;;
21581;SDS011;10952;50.836;4.348;2023-05-13T11:16:23;14.55;;;9.88;;
21581;SDS011;10952;50.836;4.348;2023-05-13T11:18:50;15.63;;;9.02;;
21581;SDS011;10952;50.836;4.348;2023-05-13T11:21:17;18.85;;;9.70;;
21581;SDS011;10952;50.836;4.348;2023-05-13T11:24:00;12.50;;;9.45;;
21581;SDS011;10952;50.836;4.348;2023-05-13T11:29:12;14.20;;;9.43;;
21581;SDS011;10952;50.836;4.348;2023-05-13T11:31:56;17.40;;;11.07;;
21581;SDS011;10952;50.836;4.348;2023-05-13T11:34:24;17.65;;;10.52;;
21581;SDS011;10952;50.836;4.348;2023-05-13T11:36:51;13.85;;;10.77;;
21581;SDS011;10952;50.836;4.348;2023-05-13T11:39:31;16.13;;;12.77;;
21581;SDS011;10952;50.836;4.348;2023-05-13T11:41:57;15.05;;;12.38;;
21581;SDS011;10952;50.836;4.348;2023-05-13T11:44:25;18.98;;;12.25;;
21581;SDS011;10952;50.836;4.348;2023-05-13T11:52:10;22.35;;;12.25;;
21581;SDS011;10952;50.836;4.348;2023-05-13T11:57:22;18.88;;;12.25;;
21581;SDS011;10952;50.836;4.348;2023-05-13T12:00:02;14.15;;;11.30;;
21581;SDS011;10952;50.836;4.348;2023-05-13T12:02:35;14.18;;;11.50;;
21581;SDS011;10952;50.836;4.348;2023-05-13T12:05:07;14.55;;;10.65;;
21581;SDS011;10952;50.836;4.348;2023-05-13T12:07:34;11.20;;;8.63;;
21581;SDS011;10952;50.836;4.348;2023-05-13T12:10:02;9.90;;;8.77;;
21581;SDS011;10952;50.836;4.348;2023-05-13T12:12:29;10.70;;;8.80;;
21581;SDS011;10952;50.836;4.348;2023-05-13T12:15:01;19.15;;;10.35;;
21581;SDS011;10952;50.836;4.348;2023-05-13T12:17:28;17.52;;;9.43;;
21581;SDS011;10952;50.836;4.348;2023-05-13T12:28:09;17.40;;;11.48;;
21581;SDS011;10952;50.836;4.348;2023-05-13T12:30:36;16.90;;;10.27;;
21581;SDS011;10952;50.836;4.348;2023-05-13T12:33:04;14.38;;;10.60;;
21581;SDS011;10952;50.836;4.348;2023-05-13T12:35:30;15.32;;;11.07;;
21581;SDS011;10952;50.836;4.348;2023-05-13T12:37:58;15.32;;;10.00;;
21581;SDS011;10952;50.836;4.348;2023-05-13T12:40:27;14.75;;;10.90;;
21581;SDS011;10952;50.836;4.348;2023-05-13T12:43:00;20.45;;;12.93;;
21581;SDS011;10952;50.836;4.348;2023-05-13T12:45:30;18.40;;;11.70;;
21581;SDS011;10952;50.836;4.348;2023-05-13T12:47:57;19.27;;;11.95;;
21581;SDS011;10952;50.836;4.348;2023-05-13T12:50:24;19.98;;;13.23;;
21581;SDS011;10952;50.836;4.348;2023-05-13T12:52:51;19.00;;;13.32;;
21581;SDS011;10952;50.836;4.348;2023-05-13T12:55:17;14.60;;;9.05;;
21581;SDS011;10952;50.836;4.348;2023-05-13T12:57:52;16.85;;;7.38;;
21581;SDS011;10952;50.836;4.348;2023-05-13T13:00:28;11.15;;;5.53;;
21581;SDS011;10952;50.836;4.348;2023-05-13T13:02:55;8.95;;;5.20;;
21581;SDS011;10952;50.836;4.348;2023-05-13T13:05:22;7.60;;;5.18;;
21581;SDS011;10952;50.836;4.348;2023-05-13T13:07:48;8.00;;;4.68;;
21581;SDS011;10952;50.836;4.348;2023-05-13T13:10:15;11.75;;;6.63;;
21581;SDS011;10952;50.836;4.348;2023-05-13T13:12:41;13.73;;;9.25;;
21581;SDS011;10952;50.836;4.348;2023-05-13T13:15:08;16.60;;;11.52;;
21581;SDS011;10952;50.836;4.348;2023-05-13T13:17:34;18.67;;;11.90;;
21581;SDS011;10952;50.836;4.348;2023-05-13T13:20:00;21.77;;;12.30;;
21581;SDS011;10952;50.836;4.348;2023-05-13T13:22:29;17.35;;;12.63;;
21581;SDS011;10952;50.836;4.348;2023-05-13T13:24:54;24.92;;;13.35;;
21581;SDS011;10952;50.836;4.348;2023-05-13T13:27:20;19.58;;;12.13;;
21581;SDS011;10952;50.836;4.348;2023-05-13T13:29:46;18.13;;;12.20;;
21581;SDS011;10952;50.836;4.348;2023-05-13T13:32:12;20.05;;;12.43;;
21581;SDS011;10952;50.836;4.348;2023-05-13T13:34:37;19.33;;;13.13;;
21581;SDS011;10952;50.836;4.348;2023-05-13T13:37:03;19.02;;;11.90;;
21581;SDS011;10952;50.836;4.348;2023-05-13T13:39:29;20.55;;;13.20;;
21581;SDS011;10952;50.836;4.348;2023-05-13T13:41:55;24.02;;;13.30;;
21581;SDS011;10952;50.836;4.348;2023-05-13T13:44:21;15.67;;;10.77;;
21581;SDS011;10952;50.836;4.348;2023-05-13T13:46:47;17.95;;;12.05;;
21581;SDS011;10952;50.836;4.348;2023-05-13T13:49:13;22.70;;;13.60;;
21581;SDS011;10952;50.836;4.348;2023-05-13T13:51:38;18.58;;;10.63;;
21581;SDS011;10952;50.836;4.348;2023-05-13T13:54:04;21.48;;;12.05;;
21581;SDS011;10952;50.836;4.348;2023-05-13T13:56:31;18.55;;;10.07;;
21581;SDS011;10952;50.836;4.348;2023-05-13T13:58:56;21.55;;;11.63;;
21581;SDS011;10952;50.836;4.348;2023-05-13T14:01:22;19.92;;;12.45;;
21581;SDS011;10952;50.836;4.348;2023-05-13T14:03:48;19.10;;;12.18;;
21581;SDS011;10952;50.836;4.348;2023-05-13T14:06:14;28.27;;;12.43;;
21581;SDS011;10952;50.836;4.348;2023-05-13T14:08:40;21.38;;;13.20;;
21581;SDS011;10952;50.836;4.348;2023-05-13T14:11:06;19.55;;;13.93;;
21581;SDS011;10952;50.836;4.348;2023-05-13T14:13:32;18.27;;;11.23;;
21581;SDS011;10952;50.836;4.348;2023-05-13T14:15:58;15.82;;;8.82;;
21581;SDS011;10952;50.836;4.348;2023-05-13T14:18:23;17.35;;;8.25;;
21581;SDS011;10952;50.836;4.348;2023-05-13T14:20:49;14.82;;;8.50;;
21581;SDS011;10952;50.836;4.348;2023-05-13T14:23:16;15.50;;;9.18;;
21581;SDS011;10952;50.836;4.348;2023-05-13T14:25:42;16.65;;;9.70;;
21581;SDS011;10952;50.836;4.348;2023-05-13T14:28:08;23.80;;;13.45;;
21581;SDS011;10952;50.836;4.348;2023-05-13T14:30:35;24.65;;;12.60;;
21581;SDS011;10952;50.836;4.348;2023-05-13T14:33:01;22.70;;;13.03;;
21581;SDS011;10952;50.836;4.348;2023-05-13T14:35:27;21.20;;;14.37;;
21581;SDS011;10952;50.836;4.348;2023-05-13T14:37:52;25.20;;;12.57;;
21581;SDS011;10952;50.836;4.348;2023-05-13T14:40:19;19.33;;;12.60;;
21581;SDS011;10952;50.836;4.348;2023-05-13T14:42:45;19.52;;;11.85;;
21581;SDS011;10952;50.836;4.348;2023-05-13T14:45:10;21.80;;;12.67;;
21581;SDS011;10952;50.836;4.348;2023-05-13T14:47:36;26.70;;;12.67;;
21581;SDS011;10952;50.836;4.348;2023-05-13T14:50:02;23.03;;;12.47;;
21581;SDS011;10952;50.836;4.348;2023-05-13T14:52:28;23.13;;;11.70;;
21581;SDS011;10952;50.836;4.348;2023-05-13T14:54:53;21.20;;;11.33;;
21581;SDS011;10952;50.836;4.348;2023-05-13T14:57:20;18.42;;;11.20;;